Time;durP1;ratioP1;P1;durP2;ratioP2;P2;SDS_P1;SDS_P2;PMS_P1;PMS_P2;Temp;Humidity;BMP_temperature;BMP_pressure;BME280_temperature;BME280_humidity;BME280_pressure;Samples;Min_cycle;Max_cycle;Signal;HPM_P1;HPM_P2
2021/05/09 00:01:45;;;;;;;11.65;7.53;;;13.00;92.30;;;;;;5041405;28;20385;-77
2021/05/09 00:04:30;;;;;;;12.27;7.15;;;12.90;92.30;;;;;;5043225;28;20049;-76
2021/05/09 00:06:57;;;;;;;10.57;6.93;;;12.90;92.30;;;;;;5042395;28;20082;-79
2021/05/09 00:09:24;;;;;;;12.73;7.47;;;12.90;92.40;;;;;;5020588;28;20036;-78
2021/05/09 00:11:50;;;;;;;9.55;7.32;;;12.80;92.40;;;;;;5044797;28;20045;-75
2021/05/09 00:14:16;;;;;;;15.43;7.88;;;12.80;92.50;;;;;;5033077;28;20521;-78
2021/05/09 00:16:42;;;;;;;12.02;7.60;;;12.80;92.50;;;;;;5027800;28;20051;-78
2021/05/09 00:19:08;;;;;;;13.25;7.07;;;12.70;92.50;;;;;;5047232;28;20175;-80
2021/05/09 00:21:36;;;;;;;12.20;7.18;;;12.70;92.70;;;;;;5052051;28;20119;-79
2021/05/09 00:24:02;;;;;;;9.60;6.85;;;12.70;92.70;;;;;;5048158;28;20522;-79
2021/05/09 00:26:28;;;;;;;12.75;7.30;;;12.60;92.70;;;;;;5045584;28;20824;-77
2021/05/09 00:28:54;;;;;;;11.27;7.28;;;12.60;92.80;;;;;;5030067;28;20033;-77
2021/05/09 00:31:20;;;;;;;9.75;7.30;;;12.70;92.80;;;;;;5031247;28;20032;-78
2021/05/09 00:33:51;;;;;;;12.75;6.88;;;12.60;92.80;;;;;;5038518;28;20041;-78
2021/05/09 00:36:17;;;;;;;12.73;7.13;;;12.60;92.80;;;;;;5044223;28;20403;-78
2021/05/09 00:38:43;;;;;;;9.70;6.18;;;12.60;92.80;;;;;;5016470;28;20602;-77
2021/05/09 00:41:09;;;;;;;11.25;6.60;;;12.60;92.80;;;;;;5040298;28;20143;-77
2021/05/09 00:43:35;;;;;;;11.55;6.38;;;12.60;92.90;;;;;;5050626;28;20044;-79
2021/05/09 00:46:02;;;;;;;11.45;6.22;;;12.60;92.90;;;;;;5023878;28;20526;-80
2021/05/09 00:48:28;;;;;;;11.65;5.97;;;12.60;92.90;;;;;;5055225;28;20577;-79
2021/05/09 00:50:54;;;;;;;7.40;6.20;;;12.60;92.90;;;;;;5016172;28;20467;-80
2021/05/09 00:53:23;;;;;;;9.82;6.85;;;12.60;92.80;;;;;;5046768;28;20082;-79
2021/05/09 00:55:50;;;;;;;11.50;6.50;;;12.60;92.80;;;;;;5046923;28;20041;-77
2021/05/09 00:58:18;;;;;;;8.65;6.15;;;12.60;92.80;;;;;;5057860;28;20094;-80
2021/05/09 01:00:45;;;;;;;11.65;6.88;;;12.70;93.10;;;;;;5066362;28;20518;-76
2021/05/09 01:03:14;;;;;;;9.98;6.60;;;12.60;92.80;;;;;;5027528;28;20032;-79
2021/05/09 01:05:40;;;;;;;10.27;6.35;;;12.60;92.80;;;;;;5046456;28;20037;-79
2021/05/09 01:08:06;;;;;;;10.80;6.07;;;12.70;92.80;;;;;;5012023;28;20036;-77
2021/05/09 01:10:32;;;;;;;14.45;6.45;;;12.60;92.80;;;;;;5038535;28;20038;-75
2021/05/09 01:12:58;;;;;;;12.32;6.68;;;12.70;92.80;;;;;;5055492;28;20049;-76
2021/05/09 01:15:25;;;;;;;13.25;7.00;;;12.70;92.80;;;;;;5047842;28;20040;-77
2021/05/09 01:17:56;;;;;;;11.48;6.28;;;12.70;92.70;;;;;;5045698;28;20113;-77
2021/05/09 01:20:21;;;;;;;10.05;6.32;;;12.70;92.70;;;;;;5037050;28;20064;-77
2021/05/09 01:22:48;;;;;;;8.90;6.03;;;12.80;92.70;;;;;;5040701;28;20029;-75
2021/05/09 01:25:14;;;;;;;8.65;5.97;;;12.80;92.70;;;;;;5048600;28;20037;-78
2021/05/09 01:27:39;;;;;;;11.73;6.07;;;12.80;92.60;;;;;;5026045;28;20162;-75
2021/05/09 01:30:08;;;;;;;8.02;5.97;;;12.80;92.50;;;;;;5011303;28;20396;-76
2021/05/09 01:32:36;;;;;;;9.57;6.25;;;12.80;92.50;;;;;;5046110;28;20041;-78
2021/05/09 01:35:07;;;;;;;10.95;6.28;;;12.70;92.50;;;;;;5044265;28;20031;-78
2021/05/09 01:37:37;;;;;;;11.85;6.25;;;12.70;92.50;;;;;;5039817;28;20036;-79
2021/05/09 01:40:06;;;;;;;11.10;6.32;;;12.70;92.80;;;;;;5022513;28;20040;-76
2021/05/09 01:42:33;;;;;;;12.23;7.00;;;12.70;92.50;;;;;;5060630;28;20044;-79
2021/05/09 01:45:00;;;;;;;11.10;6.28;;;12.70;92.50;;;;;;5045221;28;20371;-80
2021/05/09 01:47:26;;;;;;;10.07;6.00;;;12.70;92.50;;;;;;5047546;28;20259;-75
2021/05/09 01:49:52;;;;;;;14.90;6.57;;;12.60;92.40;;;;;;5025665;28;20037;-77
2021/05/09 01:52:20;;;;;;;8.95;6.13;;;12.70;92.40;;;;;;5031116;28;20029;-78
2021/05/09 01:54:46;;;;;;;10.57;6.10;;;12.60;92.40;;;;;;5046763;28;20485;-78
2021/05/09 01:57:12;;;;;;;13.48;7.00;;;12.60;92.40;;;;;;5040713;28;20090;-79
2021/05/09 01:59:38;;;;;;;9.88;5.75;;;12.60;92.40;;;;;;5048939;28;20525;-79
2021/05/09 02:02:04;;;;;;;10.68;6.75;;;12.60;92.40;;;;;;5019571;28;20033;-79
2021/05/09 02:04:37;;;;;;;11.18;6.88;;;12.50;92.40;;;;;;5054135;28;20040;-78
2021/05/09 02:07:23;;;;;;;8.80;6.07;;;12.40;92.40;;;;;;5011258;28;20108;-80
2021/05/09 02:09:49;;;;;;;9.52;6.18;;;12.40;92.50;;;;;;5041057;28;20160;-79
2021/05/09 02:12:15;;;;;;;10.55;6.20;;;12.30;92.50;;;;;;5003821;28;20033;-80
2021/05/09 02:14:41;;;;;;;11.38;6.47;;;12.30;92.50;;;;;;5044417;28;20029;-79
2021/05/09 02:17:06;;;;;;;13.45;6.82;;;12.20;92.50;;;;;;5043033;28;20102;-77
2021/05/09 02:19:33;;;;;;;8.13;6.53;;;12.10;92.60;;;;;;5034795;28;20478;-76
2021/05/09 02:21:58;;;;;;;8.27;6.30;;;12.00;92.70;;;;;;5028856;28;20076;-76
2021/05/09 02:24:25;;;;;;;16.42;7.70;;;12.00;92.80;;;;;;5044339;28;20061;-79
2021/05/09 02:26:51;;;;;;;8.60;6.38;;;11.90;92.90;;;;;;5032660;28;20041;-76
2021/05/09 02:29:17;;;;;;;11.75;6.80;;;11.90;93.00;;;;;;5047496;28;20043;-76
2021/05/09 02:31:42;;;;;;;11.80;6.85;;;11.80;93.10;;;;;;5053199;28;20465;-79
2021/05/09 02:34:08;;;;;;;12.30;7.45;;;11.80;93.10;;;;;;5039838;28;20123;-78
2021/05/09 02:36:34;;;;;;;12.52;7.00;;;11.80;93.20;;;;;;5054369;28;20037;-78
2021/05/09 02:39:00;;;;;;;12.57;6.97;;;11.80;93.20;;;;;;5040821;28;20135;-78
2021/05/09 02:41:25;;;;;;;11.00;6.93;;;11.80;93.20;;;;;;5026277;28;20040;-76
2021/05/09 02:43:51;;;;;;;13.98;7.72;;;11.80;93.20;;;;;;5007954;28;20527;-78
2021/05/09 02:46:18;;;;;;;13.45;7.40;;;11.80;93.20;;;;;;5035528;28;20037;-79
2021/05/09 02:48:44;;;;;;;7.60;6.57;;;11.70;93.20;;;;;;5035053;28;20040;-78
2021/05/09 02:51:09;;;;;;;12.57;7.15;;;11.80;93.20;;;;;;5047864;28;20426;-77
2021/05/09 02:53:36;;;;;;;11.65;7.30;;;11.80;93.20;;;;;;5030953;28;20068;-77
2021/05/09 02:56:06;;;;;;;13.90;7.22;;;11.70;93.10;;;;;;5060561;28;20037;-79
2021/05/09 02:58:32;;;;;;;10.30;7.30;;;11.70;93.10;;;;;;5055656;28;20036;-78
2021/05/09 03:00:58;;;;;;;14.23;6.78;;;11.70;93.10;;;;;;5049258;28;20029;-79
2021/05/09 03:03:24;;;;;;;9.25;6.55;;;11.70;93.10;;;;;;5056074;28;20044;-78
2021/05/09 03:05:49;;;;;;;13.73;7.28;;;11.70;93.20;;;;;;5010379;28;20279;-78
2021/05/09 03:08:15;;;;;;;11.80;6.70;;;11.70;93.20;;;;;;5048555;28;20029;-78
2021/05/09 03:10:41;;;;;;;13.63;6.90;;;11.70;93.20;;;;;;5047652;28;20841;-79
2021/05/09 03:13:07;;;;;;;10.20;6.75;;;11.70;93.20;;;;;;5041265;28;20037;-77
2021/05/09 03:15:33;;;;;;;13.02;6.72;;;11.70;93.20;;;;;;5044387;28;20041;-78
2021/05/09 03:17:59;;;;;;;11.48;6.28;;;11.60;93.20;;;;;;5049199;28;20090;-78
2021/05/09 03:20:25;;;;;;;11.10;7.25;;;11.70;93.20;;;;;;5056074;28;20439;-79
2021/05/09 03:22:51;;;;;;;9.60;6.97;;;11.70;93.20;;;;;;5036879;28;20033;-78
2021/05/09 03:25:17;;;;;;;9.93;6.55;;;11.70;93.20;;;;;;5047245;28;20040;-78
2021/05/09 03:27:42;;;;;;;13.57;6.55;;;11.70;93.20;;;;;;5048007;28;20115;-78
2021/05/09 03:30:09;;;;;;;13.15;6.95;;;11.70;93.30;;;;;;5045133;28;20465;-79
2021/05/09 03:32:35;;;;;;;11.32;6.85;;;11.70;93.20;;;;;;5055049;28;20064;-79
2021/05/09 03:35:01;;;;;;;11.75;6.50;;;11.70;93.30;;;;;;5044906;28;20223;-77
2021/05/09 03:37:26;;;;;;;12.32;6.55;;;11.70;93.30;;;;;;5043980;28;20036;-78
2021/05/09 03:39:52;;;;;;;8.40;6.18;;;11.70;93.60;;;;;;5027299;28;20040;-79
2021/05/09 03:42:18;;;;;;;11.93;6.60;;;11.70;93.40;;;;;;5025679;28;20445;-78
2021/05/09 03:44:44;;;;;;;11.68;6.55;;;11.70;93.40;;;;;;5028608;28;20543;-76
2021/05/09 03:47:10;;;;;;;11.00;6.47;;;11.70;93.70;;;;;;5009809;28;20037;-77
2021/05/09 03:49:36;;;;;;;10.73;6.82;;;11.70;93.40;;;;;;5040835;28;20044;-79
2021/05/09 03:52:02;;;;;;;12.50;6.47;;;11.70;93.40;;;;;;5023540;28;20056;-78
2021/05/09 03:54:36;;;;;;;10.77;6.38;;;11.70;93.30;;;;;;5028216;28;20076;-78
2021/05/09 03:57:02;;;;;;;11.23;6.43;;;11.70;93.20;;;;;;5042101;28;20492;-78
2021/05/09 03:59:28;;;;;;;11.50;6.75;;;11.80;93.30;;;;;;5040728;28;20036;-79
2021/05/09 04:01:54;;;;;;;12.02;5.97;;;11.80;93.20;;;;;;5055451;28;20111;-78
2021/05/09 04:04:20;;;;;;;10.68;5.90;;;11.80;93.30;;;;;;5047814;28;20107;-78
2021/05/09 04:06:46;;;;;;;8.55;5.80;;;11.80;93.30;;;;;;5040866;28;20032;-79
2021/05/09 04:09:12;;;;;;;12.68;6.55;;;11.80;93.20;;;;;;5043032;28;20102;-79
2021/05/09 04:11:38;;;;;;;12.10;6.28;;;11.80;93.20;;;;;;5042029;28;20051;-78
2021/05/09 04:14:04;;;;;;;9.95;6.22;;;11.80;93.20;;;;;;5041752;28;20515;-79
2021/05/09 04:16:30;;;;;;;11.63;6.78;;;11.80;93.20;;;;;;5042701;28;20037;-79
2021/05/09 04:18:59;;;;;;;9.93;6.80;;;11.80;93.20;;;;;;5040813;28;20047;-78
2021/05/09 04:21:24;;;;;;;13.25;6.35;;;11.80;93.30;;;;;;5009321;28;20056;-77
2021/05/09 04:23:50;;;;;;;11.65;6.97;;;11.80;93.30;;;;;;5035441;28;20561;-78
2021/05/09 04:26:16;;;;;;;10.32;6.13;;;11.80;93.30;;;;;;5049920;28;20117;-80
2021/05/09 04:28:42;;;;;;;10.52;6.40;;;11.80;93.60;;;;;;5038430;28;20085;-77
2021/05/09 04:31:08;;;;;;;13.23;6.85;;;11.80;93.20;;;;;;5055936;28;20060;-78
2021/05/09 04:33:35;;;;;;;11.85;6.80;;;11.90;93.30;;;;;;5048911;28;20129;-77
2021/05/09 04:36:10;;;;;;;11.27;6.53;;;11.90;93.30;;;;;;5047250;28;20399;-78
2021/05/09 04:38:36;;;;;;;9.10;6.55;;;12.00;93.20;;;;;;5051482;28;20071;-78
2021/05/09 04:41:01;;;;;;;10.93;6.70;;;12.00;93.10;;;;;;5051090;28;20064;-78
2021/05/09 04:43:27;;;;;;;11.55;6.05;;;12.10;93.10;;;;;;5053688;28;20040;-78
2021/05/09 04:45:55;;;;;;;8.50;6.63;;;12.10;93.10;;;;;;5050199;28;20466;-79
2021/05/09 04:48:23;;;;;;;12.35;6.35;;;12.20;93.00;;;;;;5042874;28;20051;-79
2021/05/09 04:50:50;;;;;;;14.25;5.93;;;12.20;93.00;;;;;;5039120;28;20487;-80
2021/05/09 04:53:35;;;;;;;10.20;6.18;;;12.30;93.00;;;;;;5054596;28;20040;-79
2021/05/09 04:56:03;;;;;;;9.88;5.35;;;12.40;93.20;;;;;;5035815;28;20033;-78
2021/05/09 04:58:30;;;;;;;9.98;5.95;;;12.40;92.80;;;;;;5050422;28;20044;-79
2021/05/09 05:01:00;;;;;;;12.27;6.53;;;12.50;92.80;;;;;;5044437;28;20036;-79
2021/05/09 05:03:26;;;;;;;14.05;6.15;;;12.50;92.70;;;;;;5038060;28;20616;-79
2021/05/09 05:05:52;;;;;;;8.48;5.57;;;12.50;92.70;;;;;;5045518;28;20035;-78
2021/05/09 05:08:18;;;;;;;14.05;6.60;;;12.50;92.70;;;;;;5038712;28;20492;-79
2021/05/09 05:10:44;;;;;;;14.45;7.00;;;12.60;92.70;;;;;;5031623;28;20380;-78
2021/05/09 05:13:24;;;;;;;13.43;5.95;;;12.60;92.70;;;;;;5041195;28;20037;-79
2021/05/09 05:15:52;;;;;;;12.35;5.93;;;12.60;92.70;;;;;;5026442;28;20037;-79
2021/05/09 05:18:19;;;;;;;14.02;6.57;;;12.70;92.60;;;;;;5044603;28;20035;-79
2021/05/09 05:20:45;;;;;;;10.73;5.88;;;12.70;92.60;;;;;;5038630;28;20063;-79
2021/05/09 05:23:12;;;;;;;11.13;6.03;;;12.80;92.50;;;;;;5041981;28;20037;-78
2021/05/09 05:25:38;;;;;;;10.60;6.18;;;12.80;92.50;;;;;;5040830;28;20072;-78
2021/05/09 05:28:04;;;;;;;11.27;6.43;;;12.90;92.40;;;;;;5029119;28;20086;-79
2021/05/09 05:30:31;;;;;;;13.50;6.53;;;13.00;92.40;;;;;;5043470;28;20040;-77
2021/05/09 05:32:59;;;;;;;13.63;7.10;;;13.00;92.30;;;;;;5040863;28;20086;-81
2021/05/09 05:35:26;;;;;;;13.00;6.53;;;13.00;92.20;;;;;;5042085;28;20032;-79
2021/05/09 05:37:53;;;;;;;11.02;5.97;;;13.10;92.20;;;;;;5040191;28;20435;-80
2021/05/09 05:40:19;;;;;;;10.52;6.90;;;13.20;92.10;;;;;;5040769;28;20036;-78
2021/05/09 05:42:45;;;;;;;15.40;6.90;;;13.20;92.00;;;;;;5044571;28;20082;-79
2021/05/09 05:45:11;;;;;;;10.93;6.40;;;13.40;91.90;;;;;;5009814;28;20033;-79
2021/05/09 05:47:37;;;;;;;13.77;6.82;;;13.40;91.80;;;;;;5028867;28;20033;-77
2021/05/09 05:50:08;;;;;;;15.25;6.80;;;13.50;91.70;;;;;;5025945;28;20040;-79
2021/05/09 05:52:33;;;;;;;11.90;7.07;;;13.60;91.60;;;;;;5041978;28;20036;-78
2021/05/09 05:55:00;;;;;;;11.40;6.72;;;13.60;91.60;;;;;;5040522;28;20083;-82
2021/05/09 05:57:26;;;;;;;12.38;6.15;;;13.70;91.60;;;;;;5040060;28;20068;-77
2021/05/09 05:59:52;;;;;;;13.20;7.10;;;13.80;91.50;;;;;;5022250;28;20072;-77
2021/05/09 06:02:17;;;;;;;11.23;6.88;;;13.90;91.40;;;;;;5042187;28;20123;-82
2021/05/09 06:04:43;;;;;;;12.57;6.75;;;13.90;91.40;;;;;;5033489;28;20282;-77
2021/05/09 06:07:12;;;;;;;11.57;7.25;;;14.00;91.30;;;;;;5038386;28;20116;-81
2021/05/09 06:09:38;;;;;;;10.98;6.78;;;14.00;91.20;;;;;;5042882;28;20377;-77
2021/05/09 06:12:04;;;;;;;12.02;6.63;;;14.10;91.20;;;;;;5046056;28;20087;-82
2021/05/09 06:14:30;;;;;;;10.25;6.72;;;14.20;91.20;;;;;;5026045;28;20198;-76
2021/05/09 06:16:56;;;;;;;14.25;6.70;;;14.20;91.20;;;;;;5041924;28;20021;-78
2021/05/09 06:19:21;;;;;;;12.07;6.47;;;14.30;91.00;;;;;;5005679;28;20036;-79
2021/05/09 06:21:47;;;;;;;11.45;6.32;;;14.40;90.90;;;;;;5036966;28;20102;-77
2021/05/09 06:24:13;;;;;;;12.30;6.38;;;14.50;90.80;;;;;;5043043;28;20033;-84
2021/05/09 06:26:39;;;;;;;16.92;7.18;;;14.60;91.00;;;;;;5022691;28;20037;-79
2021/05/09 06:29:05;;;;;;;9.07;6.03;;;14.70;90.60;;;;;;5039881;28;20052;-77
2021/05/09 06:31:31;;;;;;;13.10;5.97;;;14.80;90.60;;;;;;5040478;28;20107;-77
2021/05/09 06:33:57;;;;;;;7.95;5.40;;;14.90;90.50;;;;;;5035976;28;20276;-77
2021/05/09 06:36:23;;;;;;;10.95;5.55;;;15.00;90.40;;;;;;5046789;28;20435;-78
2021/05/09 06:38:49;;;;;;;10.95;5.93;;;15.10;90.20;;;;;;5040161;28;20550;-83
2021/05/09 06:41:15;;;;;;;10.27;5.85;;;15.10;90.10;;;;;;5038929;28;20049;-77
2021/05/09 06:43:41;;;;;;;14.68;6.25;;;15.30;90.20;;;;;;5044341;28;20040;-82
2021/05/09 06:46:06;;;;;;;7.22;5.38;;;15.40;90.10;;;;;;5044541;28;20029;-77
2021/05/09 06:48:33;;;;;;;10.55;5.72;;;15.50;89.80;;;;;;5062316;28;20037;-76
2021/05/09 06:50:59;;;;;;;8.80;5.47;;;15.60;89.50;;;;;;5028524;28;20404;-81
2021/05/09 06:53:25;;;;;;;11.90;5.57;;;15.70;89.00;;;;;;5031975;28;20043;-77
2021/05/09 06:55:51;;;;;;;10.45;5.43;;;15.80;88.70;;;;;;5044756;28;20097;-77
2021/05/09 06:58:22;;;;;;;7.68;4.57;;;15.90;88.50;;;;;;5037268;28;20451;-78
2021/05/09 07:00:49;;;;;;;6.00;4.40;;;16.00;88.30;;;;;;5040486;28;20045;-81
2021/05/09 07:03:16;;;;;;;5.50;4.15;;;16.10;88.10;;;;;;5043834;28;20582;-78
2021/05/09 07:05:42;;;;;;;8.75;4.90;;;16.20;87.40;;;;;;5049851;28;20144;-79
2021/05/09 07:08:07;;;;;;;6.43;4.85;;;16.30;87.40;;;;;;5044298;28;20032;-77
2021/05/09 07:10:35;;;;;;;7.78;4.25;;;16.40;87.10;;;;;;5023473;28;21557;-77
2021/05/09 07:13:01;;;;;;;7.03;4.63;;;16.50;87.00;;;;;;5028630;28;20047;-77
2021/05/09 07:15:30;;;;;;;7.65;4.28;;;16.60;86.90;;;;;;5048634;28;20062;-81
2021/05/09 07:18:22;;;;;;;6.40;3.90;;;16.70;86.30;;;;;;5037615;28;20036;-77
2021/05/09 07:20:52;;;;;;;7.85;4.22;;;16.80;85.40;;;;;;5048486;28;20052;-78
2021/05/09 07:23:18;;;;;;;7.05;4.07;;;16.80;85.00;;;;;;5029984;28;20053;-78
2021/05/09 07:25:44;;;;;;;6.03;3.72;;;16.80;84.70;;;;;;5051107;28;20053;-79
2021/05/09 07:28:14;;;;;;;7.00;4.40;;;16.80;84.50;;;;;;5056432;28;20156;-79
2021/05/09 07:30:43;;;;;;;9.32;4.28;;;16.90;84.40;;;;;;5042796;28;20455;-78
2021/05/09 07:33:09;;;;;;;8.18;4.18;;;16.90;84.20;;;;;;5041176;28;20514;-81
2021/05/09 07:35:36;;;;;;;7.07;3.90;;;16.90;84.80;;;;;;5038275;28;20558;-81
2021/05/09 07:38:06;;;;;;;7.10;4.00;;;16.90;83.80;;;;;;5040255;28;20965;-79
2021/05/09 07:40:33;;;;;;;6.35;3.58;;;16.90;83.90;;;;;;5034542;28;20044;-78
2021/05/09 07:42:59;;;;;;;4.22;3.40;;;17.00;83.40;;;;;;5049495;28;20502;-78
2021/05/09 07:45:25;;;;;;;7.53;4.10;;;17.00;82.80;;;;;;5048533;28;20025;-76
2021/05/09 07:47:51;;;;;;;5.68;3.70;;;17.10;83.10;;;;;;5046786;28;20082;-80
2021/05/09 07:50:19;;;;;;;7.65;3.40;;;17.20;83.10;;;;;;5045795;28;20511;-78
2021/05/09 07:52:49;;;;;;;5.82;3.22;;;17.30;82.80;;;;;;5054096;28;20083;-80
2021/05/09 07:55:16;;;;;;;7.80;3.70;;;17.50;82.60;;;;;;5048051;28;20056;-78
2021/05/09 07:57:42;;;;;;;4.18;3.10;;;17.50;82.50;;;;;;5053214;28;20709;-79
2021/05/09 08:00:12;;;;;;;6.85;3.30;;;17.70;82.00;;;;;;5049285;28;20752;-79
2021/05/09 08:02:39;;;;;;;7.07;2.80;;;17.70;81.80;;;;;;5045305;28;20058;-79
2021/05/09 08:05:05;;;;;;;6.60;3.30;;;17.80;82.00;;;;;;5047076;28;20763;-79
2021/05/09 08:07:31;;;;;;;9.07;3.85;;;17.90;82.50;;;;;;5045450;28;20044;-78
2021/05/09 08:09:57;;;;;;;4.68;3.13;;;18.00;82.90;;;;;;5041064;28;20036;-79
2021/05/09 08:12:23;;;;;;;4.32;2.88;;;18.00;83.70;;;;;;5048279;28;20406;-79
2021/05/09 08:14:49;;;;;;;5.97;3.17;;;18.10;82.90;;;;;;5046004;28;20032;-80
2021/05/09 08:17:15;;;;;;;6.72;3.55;;;18.10;82.90;;;;;;5052119;28;20110;-79
2021/05/09 08:19:42;;;;;;;4.32;3.22;;;18.20;82.60;;;;;;5046417;28;20033;-79
2021/05/09 08:22:08;;;;;;;6.28;3.30;;;18.30;82.00;;;;;;5048661;28;20036;-79
2021/05/09 08:24:33;;;;;;;7.95;3.65;;;18.30;81.90;;;;;;5026340;28;21209;-79
2021/05/09 08:26:59;;;;;;;6.05;4.30;;;18.40;80.70;;;;;;5028364;28;20044;-79
2021/05/09 08:29:25;;;;;;;7.20;3.75;;;18.40;80.70;;;;;;5046841;28;20028;-79
2021/05/09 08:31:51;;;;;;;6.80;3.70;;;18.50;81.00;;;;;;5055660;28;20087;-79
2021/05/09 08:34:17;;;;;;;8.90;3.85;;;18.60;81.10;;;;;;5027893;28;20527;-79
2021/05/09 08:36:43;;;;;;;6.10;3.10;;;18.60;81.10;;;;;;5041306;28;20628;-79
2021/05/09 08:39:09;;;;;;;5.55;3.50;;;18.60;80.60;;;;;;5005400;28;20049;-79
2021/05/09 08:41:40;;;;;;;5.63;3.50;;;18.60;80.70;;;;;;5037811;28;20041;-80
2021/05/09 08:44:09;;;;;;;6.20;3.20;;;18.70;79.50;;;;;;5047303;28;20032;-79
2021/05/09 08:46:37;;;;;;;8.55;3.38;;;18.80;79.10;;;;;;5044106;28;20036;-79
2021/05/09 08:49:04;;;;;;;5.43;3.13;;;18.90;79.60;;;;;;5039717;28;20439;-79
2021/05/09 08:51:31;;;;;;;6.82;3.05;;;19.00;79.40;;;;;;5048894;28;20032;-79
2021/05/09 08:53:58;;;;;;;3.65;2.90;;;19.10;79.10;;;;;;5026973;28;20040;-80
2021/05/09 08:56:25;;;;;;;5.45;3.00;;;19.30;78.10;;;;;;5042209;28;20036;-80
2021/05/09 08:58:52;;;;;;;4.53;3.20;;;19.30;76.80;;;;;;5040662;28;20111;-80
2021/05/09 09:01:18;;;;;;;5.25;3.25;;;19.40;77.00;;;;;;5025360;28;20090;-79
2021/05/09 09:03:45;;;;;;;8.98;2.97;;;19.40;77.10;;;;;;5045930;28;20567;-79
2021/05/09 09:06:16;;;;;;;4.82;2.70;;;19.50;76.00;;;;;;5038641;28;20043;-79
2021/05/09 09:08:52;;;;;;;4.53;3.05;;;19.60;74.50;;;;;;5037860;28;20056;-79
2021/05/09 09:11:28;;;;;;;4.68;2.50;;;19.60;74.80;;;;;;5039440;28;20048;-80
2021/05/09 09:14:12;;;;;;;7.57;2.60;;;19.70;74.60;;;;;;5038844;28;20041;-79
2021/05/09 09:16:39;;;;;;;4.70;2.38;;;19.90;74.90;;;;;;5029616;28;20365;-80
2021/05/09 09:19:09;;;;;;;5.50;2.55;;;20.00;73.60;;;;;;5040830;28;20032;-80
2021/05/09 09:21:35;;;;;;;5.22;2.55;;;20.20;73.90;;;;;;5024357;28;20036;-80
2021/05/09 09:24:11;;;;;;;3.70;2.30;;;20.40;73.90;;;;;;5051730;28;20040;-80
2021/05/09 09:26:53;;;;;;;2.97;2.30;;;20.60;73.00;;;;;;5040902;28;20583;-80
2021/05/09 09:29:34;;;;;;;4.10;1.90;;;20.80;73.00;;;;;;5038981;28;20742;-80
2021/05/09 09:32:06;;;;;;;4.20;2.13;;;20.90;71.70;;;;;;5020615;28;20642;-80
2021/05/09 09:34:59;;;;;;;2.85;2.08;;;21.00;72.20;;;;;;5044834;28;20365;-79
2021/05/09 09:37:32;;;;;;;4.43;1.70;;;21.10;72.60;;;;;;5041865;28;20048;-80
2021/05/09 09:39:59;;;;;;;5.97;1.60;;;21.30;70.90;;;;;;5063185;28;20040;-80
2021/05/09 09:42:37;;;;;;;3.60;1.90;;;21.30;70.10;;;;;;5057978;28;20059;-80
2021/05/09 09:45:19;;;;;;;3.13;2.00;;;21.20;69.00;;;;;;5044860;28;20400;-80
2021/05/09 09:47:57;;;;;;;4.70;1.95;;;21.00;69.30;;;;;;5025184;28;20036;-78
2021/05/09 09:50:45;;;;;;;3.42;1.80;;;20.90;68.40;;;;;;5041252;28;20032;-79
2021/05/09 09:53:31;;;;;;;4.72;2.42;;;20.70;67.90;;;;;;5044039;28;20561;-79
2021/05/09 09:56:20;;;;;;;3.58;2.30;;;20.50;67.50;;;;;;5031954;28;20036;-80
2021/05/09 09:58:56;;;;;;;4.57;2.08;;;20.30;68.10;;;;;;5037241;28;20037;-80
2021/05/09 10:01:33;;;;;;;4.55;2.10;;;20.20;68.70;;;;;;5037450;28;20045;-80
2021/05/09 10:04:01;;;;;;;6.63;2.05;;;20.20;69.20;;;;;;5038696;28;20089;-80
2021/05/09 10:06:28;;;;;;;3.08;1.95;;;20.10;70.20;;;;;;5048685;28;20036;-80
2021/05/09 10:08:58;;;;;;;7.53;2.40;;;20.10;71.90;;;;;;5066599;28;20036;-81
2021/05/09 10:11:28;;;;;;;5.53;1.85;;;20.20;75.20;;;;;;5045519;28;20036;-81
2021/05/09 10:13:56;;;;;;;4.72;1.95;;;20.10;76.30;;;;;;5042331;28;20037;-81
2021/05/09 10:16:25;;;;;;;4.25;2.05;;;20.10;76.30;;;;;;5045559;28;20534;-81
2021/05/09 10:18:57;;;;;;;3.67;1.70;;;20.10;76.80;;;;;;5060161;28;20123;-81
2021/05/09 10:21:42;;;;;;;5.45;2.20;;;20.20;77.30;;;;;;5046690;28;20040;-80
2021/05/09 10:24:10;;;;;;;5.05;2.88;;;20.40;77.90;;;;;;5048743;28;20078;-81
2021/05/09 10:26:46;;;;;;;4.78;2.05;;;20.60;76.00;;;;;;5052271;28;20321;-81
2021/05/09 10:29:35;;;;;;;4.68;2.00;;;20.80;76.20;;;;;;5041264;28;20029;-81
2021/05/09 10:32:08;;;;;;;4.13;1.80;;;20.90;75.90;;;;;;5046210;28;20122;-81
2021/05/09 10:34:55;;;;;;;5.03;1.80;;;21.00;74.90;;;;;;5049379;28;20041;-81
2021/05/09 10:37:42;;;;;;;4.40;1.85;;;21.10;74.10;;;;;;5045843;28;20036;-81
2021/05/09 10:40:35;;;;;;;5.50;1.50;;;21.20;72.80;;;;;;5038733;28;20060;-81
2021/05/09 10:43:04;;;;;;;3.40;1.30;;;21.50;73.90;;;;;;5066622;28;20127;-80
2021/05/09 10:45:50;;;;;;;4.80;1.50;;;21.80;68.80;;;;;;5054981;28;20035;-81
2021/05/09 10:48:19;;;;;;;3.08;1.63;;;22.00;66.90;;;;;;5037139;28;20040;-80
2021/05/09 10:50:49;;;;;;;5.15;1.40;;;22.40;68.10;;;;;;5046393;28;20059;-82
2021/05/09 10:53:33;;;;;;;3.60;1.50;;;22.70;65.10;;;;;;5063050;28;20028;-81
2021/05/09 10:56:04;;;;;;;3.65;1.65;;;22.90;62.40;;;;;;5042654;28;20041;-80
2021/05/09 10:58:48;;;;;;;7.45;1.20;;;23.10;62.60;;;;;;5056138;28;20143;-81
2021/05/09 11:01:34;;;;;;;5.13;1.70;;;23.10;59.60;;;;;;5050571;28;20047;-81
2021/05/09 11:04:13;;;;;;;2.92;1.20;;;23.20;60.60;;;;;;5038754;28;20603;-81
2021/05/09 11:06:41;;;;;;;3.03;1.60;;;23.30;60.70;;;;;;5046224;28;20036;-81
2021/05/09 11:09:08;;;;;;;2.55;1.23;;;23.40;59.70;;;;;;5038097;28;20028;-81
2021/05/09 11:11:35;;;;;;;2.35;1.35;;;23.40;59.90;;;;;;5036060;28;20242;-81
2021/05/09 11:14:02;;;;;;;1.92;1.10;;;23.50;61.20;;;;;;5065732;28;20041;-81
2021/05/09 11:16:31;;;;;;;3.33;1.20;;;23.60;60.30;;;;;;5056892;28;20033;-80
2021/05/09 11:19:07;;;;;;;2.13;1.20;;;23.70;56.40;;;;;;5053378;28;20391;-80
2021/05/09 11:21:36;;;;;;;2.78;1.30;;;23.70;55.40;;;;;;5050870;28;20055;-80
2021/05/09 11:24:07;;;;;;;3.08;1.63;;;23.70;56.20;;;;;;5068674;28;20380;-81
2021/05/09 11:26:41;;;;;;;4.00;1.60;;;23.70;54.80;;;;;;5057578;28;20047;-80
2021/05/09 11:29:08;;;;;;;2.53;1.40;;;23.60;54.80;;;;;;5038230;28;20036;-82
2021/05/09 11:31:38;;;;;;;2.85;1.17;;;23.60;54.30;;;;;;5057024;28;20059;-82
2021/05/09 11:34:04;;;;;;;4.22;1.25;;;23.50;54.50;;;;;;5057321;28;20083;-81
2021/05/09 11:36:33;;;;;;;2.00;1.25;;;23.50;54.20;;;;;;5048555;28;20428;-80
2021/05/09 11:39:11;;;;;;;3.42;1.40;;;23.40;53.50;;;;;;5049158;28;20042;-81
2021/05/09 11:41:54;;;;;;;3.08;1.30;;;23.40;54.70;;;;;;5046321;28;20506;-80
2021/05/09 11:44:33;;;;;;;2.47;1.20;;;23.50;54.70;;;;;;5017214;28;20148;-81
2021/05/09 11:47:01;;;;;;;4.55;1.50;;;23.80;53.80;;;;;;5049725;28;20063;-81
2021/05/09 11:49:34;;;;;;;3.95;1.48;;;24.20;53.30;;;;;;5044091;28;20075;-81
2021/05/09 11:51:59;;;;;;;4.97;1.50;;;24.40;54.10;;;;;;5050885;28;20043;-81
2021/05/09 11:54:27;;;;;;;1.90;1.30;;;24.40;54.80;;;;;;5050794;28;20049;-81
2021/05/09 11:56:57;;;;;;;4.13;1.40;;;24.40;54.80;;;;;;5026428;28;20419;-82
2021/05/09 11:59:30;;;;;;;4.32;1.60;;;24.50;54.70;;;;;;5046889;28;20064;-82
2021/05/09 12:01:58;;;;;;;2.75;1.17;;;24.60;53.30;;;;;;5054448;28;20037;-81
2021/05/09 12:04:29;;;;;;;4.07;1.55;;;24.70;52.80;;;;;;5045905;28;20036;-81
2021/05/09 12:06:56;;;;;;;3.58;1.60;;;24.80;52.90;;;;;;5038936;28;20387;-82
2021/05/09 12:09:23;;;;;;;3.33;1.55;;;24.80;52.40;;;;;;5033235;28;20036;-82
2021/05/09 12:11:49;;;;;;;2.70;1.48;;;24.90;52.70;;;;;;5032500;28;20048;-81
2021/05/09 12:14:15;;;;;;;2.75;1.48;;;25.00;52.10;;;;;;5050417;28;20036;-81
2021/05/09 12:16:45;;;;;;;4.65;1.45;;;25.00;51.60;;;;;;5049366;28;20064;-82
2021/05/09 12:19:11;;;;;;;2.30;1.42;;;24.90;52.10;;;;;;5058909;28;20484;-80
2021/05/09 12:21:38;;;;;;;3.38;2.58;;;24.80;52.30;;;;;;5059058;28;20072;-81
2021/05/09 12:24:06;;;;;;;4.78;3.00;;;24.90;52.30;;;;;;5058114;28;20065;-81
2021/05/09 12:26:33;;;;;;;3.85;1.20;;;24.90;51.90;;;;;;5050322;28;20044;-81
2021/05/09 12:29:19;;;;;;;2.95;1.50;;;25.00;52.50;;;;;;5056972;28;20066;-81
2021/05/09 12:31:44;;;;;;;3.20;1.50;;;25.10;53.00;;;;;;5049558;28;20055;-81
2021/05/09 12:34:11;;;;;;;5.10;1.42;;;25.30;52.60;;;;;;5027810;28;20143;-81
2021/05/09 12:36:38;;;;;;;9.13;1.85;;;25.30;53.20;;;;;;5049721;28;20037;-81
2021/05/09 12:39:22;;;;;;;2.10;1.40;;;25.20;52.50;;;;;;5054536;28;20557;-81
2021/05/09 12:41:52;;;;;;;5.50;1.50;;;25.10;54.00;;;;;;5034886;28;20037;-81
2021/05/09 12:44:22;;;;;;;3.38;1.30;;;25.00;53.80;;;;;;5050226;28;20029;-81
2021/05/09 12:46:49;;;;;;;2.80;1.48;;;24.90;53.40;;;;;;5041142;28;20512;-81
2021/05/09 12:49:16;;;;;;;2.83;1.60;;;24.90;53.80;;;;;;5052595;28;20264;-81
2021/05/09 12:52:02;;;;;;;3.00;1.50;;;24.90;53.60;;;;;;5029466;28;20044;-81